Terminal Aerodrome Forecast
Issued by NWS Duluth, MN

Home | Current Version | Previous Version | Text Only | Print | Product List | Glossary On
Versions: 1 2 3 4 5 6 7 8 9 10 11 12 13 14 15 16 17 18 19 20 21 22 23 24 25
000
FTUS43 KDLH 260400 AAA
TAFINL
TAF AMD
KINL 260433Z 2605/2624 19008KT P6SM SCT020 OVC050
      TEMPO 2605/2606 3SM -SN BKN020 OVC050
     FM260600 17005KT 3SM -SN OVC015
     FM260700 16006KT 1SM -SN OVC009
      TEMPO 2607/2610 1/2SM SN VV005
     FM261100 18006KT 4SM -SN OVC009
     FM261500 25006KT P6SM -SN OVC008
     FM261900 30008KT P6SM OVC015=

USA.gov is the U.S. government's official web portal to all federal, state and local government web resources and services.